createdAt,value
2023-02-28T00:01:42.309Z,97910.01
2023-02-28T00:11:45.434Z,97917.45
2023-02-28T00:21:48.532Z,97926.30
2023-02-28T00:31:51.758Z,97937.80
2023-02-28T00:41:54.837Z,97937.13
2023-02-28T00:51:58.305Z,97941.16
2023-02-28T01:02:03.270Z,97953.61
2023-02-28T01:12:08.734Z,97950.08
2023-02-28T01:22:12.862Z,97934.84
2023-02-28T01:32:16.083Z,97931.68
2023-02-28T01:42:19.294Z,97931.08
2023-02-28T01:52:24.861Z,97930.02
2023-02-28T02:02:30.525Z,97922.66
2023-02-28T02:13:04.765Z,97919.46
2023-02-28T02:23:09.371Z,97917.28
2023-02-28T02:33:18.385Z,97912.64
2023-02-28T02:43:32.830Z,97907.29
2023-02-28T02:53:42.100Z,97906.22
2023-02-28T03:03:47.965Z,97910.36
2023-02-28T03:14:22.829Z,97923.30
2023-02-28T03:24:54.130Z,97927.00
2023-02-28T03:35:00.435Z,97934.84
2023-02-28T03:45:10.046Z,97944.42
2023-02-28T03:55:16.047Z,97949.19
2023-02-28T04:05:21.384Z,97954.48
2023-02-28T04:15:25.874Z,97960.05
2023-02-28T04:25:29.072Z,97964.25
2023-02-28T04:35:32.239Z,97967.31
2023-02-28T04:45:36.374Z,97962.25
2023-02-28T04:55:41.444Z,97970.48
2023-02-28T05:05:45.009Z,97976.84
2023-02-28T05:15:48.267Z,97971.60
2023-02-28T05:25:53.169Z,97975.66
2023-02-28T05:35:57.360Z,97983.76
2023-02-28T05:46:02.939Z,98001.35
2023-02-28T05:56:06.333Z,98013.70
2023-02-28T06:06:09.458Z,98029.11
2023-02-28T06:16:13.761Z,98027.54
2023-02-28T06:26:17.644Z,98034.08
2023-02-28T06:36:22.095Z,98038.19
2023-02-28T06:46:25.256Z,98040.98
2023-02-28T06:56:28.774Z,98039.03
2023-02-28T07:06:32.394Z,98037.59
2023-02-28T07:16:37.021Z,98031.59
2023-02-28T07:26:40.405Z,98034.23
2023-02-28T07:36:43.480Z,98030.00
2023-02-28T07:46:46.859Z,98035.29
2023-02-28T07:56:50.391Z,98031.46
2023-02-28T08:06:54.287Z,98029.91
2023-02-28T08:16:57.491Z,98032.64
2023-02-28T08:27:00.627Z,98039.52
2023-02-28T08:37:03.899Z,98042.30
2023-02-28T08:47:06.978Z,98047.26
2023-02-28T08:57:10.905Z,98046.58
2023-02-28T09:07:14.061Z,98040.33
2023-02-28T09:17:18.127Z,98038.58
2023-02-28T09:27:22.237Z,98036.67
2023-02-28T09:37:26.107Z,98026.69
2023-02-28T09:47:40.631Z,98030.91
2023-02-28T09:57:43.934Z,98031.95
2023-02-28T10:08:26.330Z,98027.67
2023-02-28T10:18:52.102Z,98028.42
2023-02-28T10:28:56.328Z,98027.00
2023-02-28T10:39:02.390Z,98016.56
2023-02-28T10:49:13.536Z,98009.99
2023-02-28T10:59:16.651Z,97995.83
2023-02-28T11:09:26.927Z,97990.18
2023-02-28T11:19:45.936Z,97978.13
2023-02-28T11:29:50.542Z,97964.10
2023-02-28T11:39:53.691Z,97956.14
2023-02-28T11:50:21.601Z,97948.64
2023-02-28T12:00:40.152Z,97951.08
2023-02-28T12:10:58.874Z,97955.29
2023-02-28T12:21:39.961Z,97953.86
2023-02-28T12:31:50.531Z,97951.04
2023-02-28T12:42:08.934Z,97941.17
2023-02-28T12:52:14.753Z,97936.20
2023-02-28T13:02:23.849Z,97928.98
2023-02-28T13:12:28.010Z,97931.66
2023-02-28T13:22:50.484Z,97921.73
2023-02-28T13:33:24.368Z,97917.23
2023-02-28T13:44:07.421Z,97912.96
2023-02-28T13:54:18.431Z,97901.40
2023-02-28T14:04:40.466Z,97896.14
2023-02-28T14:14:43.988Z,97893.61
2023-02-28T14:25:32.131Z,97886.40
2023-02-28T14:36:05.307Z,97885.80
2023-02-28T14:46:08.718Z,97877.70
2023-02-28T14:56:39.670Z,97879.80
2023-02-28T15:06:42.993Z,97882.09
2023-02-28T15:16:51.080Z,97885.92
2023-02-28T15:26:59.804Z,97887.48
2023-02-28T15:37:03.117Z,97885.80
2023-02-28T15:47:17.937Z,97883.16
2023-02-28T15:57:29.087Z,97885.83
2023-02-28T16:07:32.329Z,97893.13
2023-02-28T16:17:40.141Z,97899.41
2023-02-28T16:27:46.519Z,97908.77
2023-02-28T16:37:53.620Z,97914.92
2023-02-28T16:47:57.544Z,97927.90
2023-02-28T16:58:02.376Z,97937.78
2023-02-28T17:08:06.773Z,97949.76
2023-02-28T17:18:16.945Z,97952.10
2023-02-28T17:28:22.559Z,97951.90
2023-02-28T17:38:25.920Z,97947.83
2023-02-28T17:48:31.438Z,97947.83
2023-02-28T17:58:35.280Z,97945.17
2023-02-28T18:08:39.600Z,97947.35
2023-02-28T18:18:44.349Z,97949.45
2023-02-28T18:28:48.570Z,97944.55
2023-02-28T18:38:52.939Z,97941.62
2023-02-28T18:48:56.184Z,97954.49
2023-02-28T18:58:59.306Z,97951.39
2023-02-28T19:09:04.644Z,97950.55
2023-02-28T19:19:07.890Z,97953.58
2023-02-28T19:29:11.010Z,97956.95
2023-02-28T19:39:14.228Z,97957.73
2023-02-28T19:49:19.695Z,97964.28
2023-02-28T19:59:31.355Z,97966.12
2023-02-28T20:09:42.117Z,97962.05
2023-02-28T20:19:45.702Z,97954.77
2023-02-28T20:29:49.776Z,97942.50
2023-02-28T20:39:53.517Z,97943.40
2023-02-28T20:49:56.721Z,97950.91
2023-02-28T20:59:59.848Z,97953.85
2023-02-28T21:10:03.333Z,97955.32
2023-02-28T21:20:06.887Z,97968.11
2023-02-28T21:30:10.663Z,97956.23
2023-02-28T21:40:14.169Z,97947.21
2023-02-28T21:50:17.324Z,97944.86
2023-02-28T22:00:21.090Z,97956.91
2023-02-28T22:10:25.100Z,97952.14
2023-02-28T22:20:28.180Z,97953.77
2023-02-28T22:30:31.483Z,97953.72
2023-02-28T22:40:35.635Z,97968.14
2023-02-28T22:50:39.829Z,97976.05
2023-02-28T23:00:43.980Z,97977.57
2023-02-28T23:10:47.115Z,97984.68
2023-02-28T23:20:50.261Z,97989.48
2023-02-28T23:30:53.490Z,97987.52
2023-02-28T23:40:56.779Z,97988.11
2023-02-28T23:51:21.004Z,97985.00
